Main page
METAR-TAF:

METAR-TAF

Airports :

Laval - Entrammes airport

Laval, France

latitude: 48-01-56N, longitude: 000-44-34W, elevation: 101 m

Current weather observation

The report was made 13 minutes ago, at 09:30 UTC
Wind 7 kt from the Northwest, varying between West and North
Temperature 14°C
Humidity 77%
Pressure 1009 hPa
Visibility 10 km or more
Broken clouds at a height of 2100 ft
Overcast at a height of 2700 ft

METAR: LFOV 190930Z AUTO 32007KT 280V010 9999 BKN021 OVC027 14/10 Q1009

Time: 11:43 (09:43 UTC)


TAF: missing

Weather observations and forecasts of more than 4000 airports (METAR and TAF reports).

The available stations are represented by yellow and red dots on the map.

Hover mouse over dot to see the name of the station.

Then click to see weather observations and forecasts.

To change the map : click on the green buttons with a black cross to zoom in, on the green button with a dash to zoom out, or on the green arrows for adjacent maps.


METAR-TAF: